createdAt,value
2022-10-01T00:02:08.694Z,77.80
2022-10-01T00:04:37.791Z,77.82
2022-10-01T00:07:09.987Z,78.02
2022-10-01T00:09:38.411Z,77.93
2022-10-01T00:12:07.094Z,78.10
2022-10-01T00:14:38.653Z,78.17
2022-10-01T00:17:06.648Z,78.22
2022-10-01T00:19:34.577Z,78.18
2022-10-01T00:22:02.651Z,78.27
2022-10-01T00:24:30.723Z,78.10
2022-10-01T00:26:58.601Z,78.26
2022-10-01T00:29:26.590Z,78.24
2022-10-01T00:31:54.690Z,78.25
2022-10-01T00:34:22.643Z,78.44
2022-10-01T00:36:50.976Z,78.46
2022-10-01T00:39:19.524Z,78.42
2022-10-01T00:41:48.243Z,78.50
2022-10-01T00:44:37.157Z,78.65
2022-10-01T00:47:18.174Z,78.62
2022-10-01T00:49:47.780Z,78.77
2022-10-01T00:52:24.865Z,78.84
2022-10-01T00:55:03.199Z,79.12
2022-10-01T00:57:31.836Z,79.00
2022-10-01T01:00:03.996Z,78.97
2022-10-01T01:02:32.125Z,79.08
2022-10-01T01:05:00.941Z,79.12
2022-10-01T01:07:31.925Z,79.20
2022-10-01T01:10:02.464Z,79.28
2022-10-01T01:13:16.599Z,79.49
2022-10-01T01:15:50.662Z,79.41
2022-10-01T01:18:33.864Z,79.54
2022-10-01T01:21:21.881Z,79.58
2022-10-01T01:24:08.276Z,79.64
2022-10-01T01:26:48.250Z,79.70
2022-10-01T01:29:41.169Z,79.79
2022-10-01T01:32:15.169Z,79.99
2022-10-01T01:34:47.049Z,79.86
2022-10-01T01:37:19.787Z,79.72
2022-10-01T01:39:52.863Z,79.89
2022-10-01T01:42:37.372Z,79.84
2022-10-01T01:45:10.728Z,79.92
2022-10-01T01:47:42.318Z,79.96
2022-10-01T01:50:13.974Z,80.00
2022-10-01T01:52:42.042Z,79.98
2022-10-01T01:55:10.389Z,80.19
2022-10-01T01:57:41.973Z,80.37
2022-10-01T02:00:11.964Z,80.40
2022-10-01T02:02:44.310Z,80.54
2022-10-01T02:05:17.144Z,80.56
2022-10-01T02:08:09.587Z,80.72
2022-10-01T02:11:05.404Z,80.68
2022-10-01T02:13:42.131Z,80.62
2022-10-01T02:16:48.844Z,80.62
2022-10-01T02:19:19.792Z,80.79
2022-10-01T02:21:58.891Z,80.76
2022-10-01T02:24:33.811Z,80.89
2022-10-01T02:27:07.556Z,80.88
2022-10-01T02:29:37.813Z,80.81
2022-10-01T02:32:07.110Z,80.94
2022-10-01T02:34:35.250Z,80.90
2022-10-01T02:37:06.315Z,80.90
2022-10-01T02:39:36.693Z,80.90
2022-10-01T02:42:07.960Z,80.88
2022-10-01T02:44:40.742Z,80.85
2022-10-01T02:47:20.867Z,80.86
2022-10-01T02:49:49.988Z,80.91
2022-10-01T02:52:29.920Z,80.93
2022-10-01T02:55:31.993Z,80.97
2022-10-01T02:57:59.975Z,80.91
2022-10-01T03:00:28.870Z,80.96
2022-10-01T03:02:56.987Z,80.82
2022-10-01T03:05:24.943Z,80.76
2022-10-01T03:07:52.893Z,80.79
2022-10-01T03:10:21.353Z,80.83
2022-10-01T03:12:51.324Z,80.93
2022-10-01T03:15:19.740Z,80.84
2022-10-01T03:17:54.134Z,81.05
2022-10-01T03:20:22.589Z,80.91
2022-10-01T03:22:51.192Z,80.79
2022-10-01T03:25:19.229Z,81.06
2022-10-01T03:27:47.415Z,80.96
2022-10-01T03:30:15.540Z,80.94
2022-10-01T03:32:43.512Z,81.04
2022-10-01T03:35:11.655Z,81.22
2022-10-01T03:37:39.751Z,81.36
2022-10-01T03:40:08.523Z,81.46
2022-10-01T03:42:36.508Z,81.54
2022-10-01T03:45:04.754Z,81.71
2022-10-01T03:47:32.750Z,81.67
2022-10-01T03:50:00.719Z,81.76
2022-10-01T03:52:28.686Z,81.71
2022-10-01T03:54:56.653Z,81.79
2022-10-01T03:57:24.621Z,81.89
2022-10-01T03:59:52.797Z,81.80
2022-10-01T04:02:22.167Z,81.89
2022-10-01T04:04:51.296Z,82.12
2022-10-01T04:07:19.258Z,82.06
2022-10-01T04:09:47.126Z,82.37
2022-10-01T04:12:15.114Z,82.42
2022-10-01T04:14:43.065Z,82.68
2022-10-01T04:17:11.136Z,82.81
2022-10-01T04:19:39.264Z,83.01
2022-10-01T04:22:07.278Z,83.09
2022-10-01T04:24:35.184Z,83.00
2022-10-01T04:27:03.217Z,83.29
2022-10-01T04:29:31.183Z,83.24
2022-10-01T04:31:59.187Z,83.21
2022-10-01T04:34:47.190Z,83.32
2022-10-01T04:37:15.187Z,83.54
2022-10-01T04:39:43.139Z,83.44
2022-10-01T04:42:13.549Z,83.50
2022-10-01T04:44:42.015Z,83.43
2022-10-01T04:47:10.081Z,83.56
2022-10-01T04:49:38.170Z,83.61
2022-10-01T04:52:06.242Z,83.63
2022-10-01T04:54:34.209Z,83.70
2022-10-01T04:57:02.280Z,83.59
2022-10-01T04:59:30.460Z,83.63
2022-10-01T05:01:58.458Z,83.59
2022-10-01T05:04:27.615Z,83.68
2022-10-01T05:06:56.426Z,83.60
2022-10-01T05:09:24.575Z,83.69
2022-10-01T05:11:52.851Z,83.94
2022-10-01T05:14:22.555Z,83.97
2022-10-01T05:16:50.800Z,83.95
2022-10-01T05:19:18.804Z,83.68
2022-10-01T05:21:46.942Z,83.47
2022-10-01T05:24:16.480Z,83.19
2022-10-01T05:26:44.451Z,83.31
2022-10-01T05:29:15.369Z,83.30
2022-10-01T05:31:44.521Z,83.28
2022-10-01T05:34:12.761Z,83.15
2022-10-01T05:36:40.727Z,83.10
2022-10-01T05:39:08.899Z,83.06
2022-10-01T05:41:37.028Z,82.96
2022-10-01T05:44:06.377Z,82.87
2022-10-01T05:46:34.341Z,82.69
2022-10-01T05:49:02.256Z,82.46
2022-10-01T05:51:30.469Z,82.34
2022-10-01T05:54:02.214Z,82.02
2022-10-01T05:56:31.174Z,81.77
2022-10-01T05:58:59.815Z,81.52
2022-10-01T06:01:28.831Z,81.31
2022-10-01T06:03:56.979Z,81.38
2022-10-01T06:06:26.815Z,81.15
2022-10-01T06:08:55.174Z,80.61
2022-10-01T06:11:24.463Z,80.62
2022-10-01T06:13:52.852Z,80.35
2022-10-01T06:16:21.166Z,80.32
2022-10-01T06:18:49.779Z,79.87
2022-10-01T06:21:17.872Z,79.90
2022-10-01T06:23:47.079Z,80.00
2022-10-01T06:26:15.142Z,80.04
2022-10-01T06:28:43.149Z,79.96
2022-10-01T06:31:11.909Z,79.89
2022-10-01T06:33:39.896Z,79.94
2022-10-01T06:36:07.937Z,79.77
2022-10-01T06:38:35.910Z,79.19
2022-10-01T06:41:05.107Z,78.48
2022-10-01T06:43:33.961Z,78.32
2022-10-01T06:46:03.262Z,78.49
2022-10-01T06:48:32.556Z,78.57
2022-10-01T06:51:00.563Z,78.49
2022-10-01T06:53:29.171Z,77.90
2022-10-01T06:55:57.435Z,78.00
2022-10-01T06:58:28.281Z,77.64
2022-10-01T07:01:02.206Z,77.28
2022-10-01T07:03:31.444Z,77.27
2022-10-01T07:06:04.156Z,77.46
2022-10-01T07:08:33.565Z,77.67
2022-10-01T07:11:05.245Z,77.28
2022-10-01T07:13:33.363Z,77.20
2022-10-01T07:16:04.243Z,76.85
2022-10-01T07:18:32.263Z,77.32
2022-10-01T07:21:00.244Z,77.53
2022-10-01T07:23:28.213Z,77.54
2022-10-01T07:25:56.173Z,77.36
2022-10-01T07:28:26.205Z,77.12
2022-10-01T07:31:11.330Z,76.53
2022-10-01T07:33:39.766Z,76.32
2022-10-01T07:36:11.027Z,76.72
2022-10-01T07:38:39.056Z,76.43
2022-10-01T07:41:07.027Z,76.43
2022-10-01T07:43:36.302Z,75.66
2022-10-01T07:46:07.311Z,75.20
2022-10-01T07:48:35.881Z,74.95
2022-10-01T07:51:04.013Z,73.98
2022-10-01T07:53:32.204Z,73.75
2022-10-01T07:56:03.738Z,73.14
2022-10-01T07:58:31.649Z,73.35
2022-10-01T08:01:03.769Z,73.53
2022-10-01T08:03:31.723Z,73.72
2022-10-01T08:05:59.820Z,73.65
2022-10-01T08:08:27.853Z,73.37
2022-10-01T08:10:55.952Z,72.72
2022-10-01T08:13:25.351Z,72.03
2022-10-01T08:15:54.989Z,72.12
2022-10-01T08:18:23.748Z,72.08
2022-10-01T08:20:52.662Z,71.86
2022-10-01T08:23:21.692Z,71.51
2022-10-01T08:25:49.562Z,71.43
2022-10-01T08:28:17.843Z,71.67
2022-10-01T08:30:45.785Z,71.37
2022-10-01T08:33:14.629Z,71.47
2022-10-01T08:35:43.902Z,70.87
2022-10-01T08:38:13.104Z,70.82
2022-10-01T08:40:50.632Z,70.73
2022-10-01T08:43:28.716Z,70.77
2022-10-01T08:46:01.288Z,70.79
2022-10-01T08:48:57.112Z,70.38
2022-10-01T08:52:27.348Z,69.35
2022-10-01T08:54:55.185Z,68.43
2022-10-01T08:57:28.098Z,67.51
2022-10-01T08:59:59.609Z,67.13
2022-10-01T09:02:41.894Z,67.31
2022-10-01T09:05:43.168Z,66.82
2022-10-01T09:08:22.944Z,66.68
2022-10-01T09:11:02.560Z,65.64
2022-10-01T09:13:36.313Z,65.43
2022-10-01T09:16:15.337Z,65.31
2022-10-01T09:19:00.679Z,64.25
2022-10-01T09:21:47.606Z,63.88
2022-10-01T09:24:29.804Z,64.17
2022-10-01T09:26:57.871Z,64.64
2022-10-01T09:29:39.307Z,63.58
2022-10-01T09:32:07.687Z,64.02
2022-10-01T09:34:40.215Z,64.07
2022-10-01T09:37:21.785Z,63.27
2022-10-01T09:40:05.369Z,63.08
2022-10-01T09:42:33.634Z,62.12
2022-10-01T09:45:01.992Z,62.38
2022-10-01T09:47:33.544Z,61.62
2022-10-01T09:50:05.937Z,61.72
2022-10-01T09:52:38.074Z,61.51
2022-10-01T09:55:18.128Z,59.47
2022-10-01T09:58:14.030Z,60.09
2022-10-01T10:00:42.705Z,59.34
2022-10-01T10:03:22.206Z,58.82
2022-10-01T10:05:51.031Z,58.72
2022-10-01T10:08:33.626Z,58.78
2022-10-01T10:11:26.892Z,59.14
2022-10-01T10:13:59.750Z,58.02
2022-10-01T10:16:31.375Z,58.57
2022-10-01T10:19:15.725Z,58.64
2022-10-01T10:21:54.684Z,59.28
2022-10-01T10:24:33.992Z,59.56
2022-10-01T10:27:06.458Z,59.54
2022-10-01T10:29:37.758Z,58.90
2022-10-01T10:32:26.890Z,57.32
2022-10-01T10:35:02.616Z,57.34
2022-10-01T10:37:37.594Z,57.04
2022-10-01T10:40:08.375Z,55.91
2022-10-01T10:42:38.975Z,56.31
2022-10-01T10:45:17.609Z,57.45
2022-10-01T10:47:49.280Z,57.44
2022-10-01T10:50:37.735Z,57.45
2022-10-01T10:53:23.092Z,57.52
2022-10-01T10:56:03.105Z,56.60
2022-10-01T10:58:33.823Z,55.24
2022-10-01T11:01:18.204Z,55.46
2022-10-01T11:03:53.385Z,54.43
2022-10-01T11:06:22.089Z,53.51
2022-10-01T11:08:59.678Z,53.21
2022-10-01T11:11:39.714Z,53.24
2022-10-01T11:14:29.711Z,53.55
2022-10-01T11:17:06.580Z,53.79
2022-10-01T11:20:03.327Z,52.74
2022-10-01T11:22:40.602Z,53.46
2022-10-01T11:25:52.878Z,53.84
2022-10-01T11:28:33.448Z,53.46
2022-10-01T11:31:29.954Z,53.80
2022-10-01T11:34:39.554Z,53.47
2022-10-01T11:37:49.917Z,53.78
2022-10-01T11:40:24.983Z,53.20
2022-10-01T11:43:00.272Z,53.21
2022-10-01T11:45:36.012Z,53.63
2022-10-01T11:48:25.838Z,53.61
2022-10-01T11:50:59.171Z,53.76
2022-10-01T11:53:33.966Z,53.52
2022-10-01T11:56:26.380Z,53.80
2022-10-01T11:59:21.796Z,53.96
2022-10-01T12:02:05.705Z,53.85
2022-10-01T12:04:40.633Z,54.10
2022-10-01T12:07:29.119Z,54.79
2022-10-01T12:10:07.222Z,54.47
2022-10-01T12:12:49.922Z,54.65
2022-10-01T12:15:24.217Z,54.52
2022-10-01T12:18:03.642Z,54.43
2022-10-01T12:20:40.880Z,54.71
2022-10-01T12:23:19.901Z,54.54
2022-10-01T12:25:56.986Z,53.79
2022-10-01T12:28:45.810Z,53.88
2022-10-01T12:31:29.627Z,54.33
2022-10-01T12:34:12.907Z,54.27
2022-10-01T12:36:47.734Z,54.29
2022-10-01T12:39:43.061Z,54.08
2022-10-01T12:42:32.517Z,54.84
2022-10-01T12:45:23.268Z,54.97
2022-10-01T12:48:00.608Z,55.54
2022-10-01T12:50:40.760Z,54.76
2022-10-01T12:53:23.853Z,55.15
2022-10-01T12:55:57.929Z,55.07
2022-10-01T12:58:38.047Z,54.89
2022-10-01T13:01:14.939Z,54.95
2022-10-01T13:03:54.876Z,55.41
2022-10-01T13:06:31.950Z,55.51
2022-10-01T13:09:10.450Z,55.47
2022-10-01T13:11:59.038Z,55.87
2022-10-01T13:14:28.434Z,55.91
2022-10-01T13:16:59.262Z,56.05
2022-10-01T13:19:42.649Z,55.78
2022-10-01T13:22:24.382Z,55.86
2022-10-01T13:25:22.845Z,55.64
2022-10-01T13:28:01.874Z,55.68
2022-10-01T13:30:45.321Z,55.83
2022-10-01T13:33:32.442Z,55.98
2022-10-01T13:36:03.387Z,55.54
2022-10-01T13:38:44.478Z,55.95
2022-10-01T13:41:23.201Z,56.16
2022-10-01T13:43:58.325Z,55.95
2022-10-01T13:46:31.359Z,56.12
2022-10-01T13:49:07.233Z,56.16
2022-10-01T13:51:37.499Z,56.74
2022-10-01T13:54:18.754Z,57.39
2022-10-01T13:56:46.921Z,57.64
2022-10-01T13:59:27.176Z,57.56
2022-10-01T14:01:55.284Z,57.51
2022-10-01T14:04:45.949Z,57.99
2022-10-01T14:07:22.808Z,58.14
2022-10-01T14:09:54.990Z,58.17
2022-10-01T14:12:53.481Z,57.97
2022-10-01T14:15:39.765Z,58.53
2022-10-01T14:18:14.914Z,58.61
2022-10-01T14:21:18.152Z,58.89
2022-10-01T14:24:23.446Z,59.05
2022-10-01T14:26:56.329Z,59.17
2022-10-01T14:29:43.240Z,59.47
2022-10-01T14:32:31.411Z,59.74
2022-10-01T14:35:33.781Z,60.22
2022-10-01T14:38:05.348Z,60.69
2022-10-01T14:40:42.080Z,60.94
2022-10-01T14:43:30.960Z,61.08
2022-10-01T14:46:00.608Z,61.26
2022-10-01T14:48:34.307Z,61.59
2022-10-01T14:51:07.601Z,61.79
2022-10-01T14:53:37.667Z,61.98
2022-10-01T14:56:14.365Z,62.30
2022-10-01T14:58:52.036Z,62.39
2022-10-01T15:01:22.193Z,62.46
2022-10-01T15:03:51.865Z,62.75
2022-10-01T15:06:27.812Z,63.15
2022-10-01T15:09:08.304Z,63.23
2022-10-01T15:11:38.123Z,63.42
2022-10-01T15:14:16.868Z,63.39
2022-10-01T15:16:44.946Z,63.80
2022-10-01T15:19:16.909Z,64.42
2022-10-01T15:21:47.986Z,64.82
2022-10-01T15:24:42.693Z,64.88
2022-10-01T15:27:14.130Z,65.36
2022-10-01T15:29:43.485Z,65.28
2022-10-01T15:32:18.197Z,65.30
2022-10-01T15:34:56.365Z,65.34
2022-10-01T15:37:33.935Z,65.46
2022-10-01T15:40:04.237Z,65.48
2022-10-01T15:42:34.639Z,65.72
2022-10-01T15:45:08.439Z,66.01
2022-10-01T15:47:37.791Z,66.12
2022-10-01T15:50:05.868Z,66.12
2022-10-01T15:52:52.689Z,66.21
2022-10-01T15:55:47.808Z,66.62
2022-10-01T15:58:15.798Z,66.72
2022-10-01T16:00:47.916Z,66.86
2022-10-01T16:03:31.355Z,66.90
2022-10-01T16:06:02.176Z,66.96
2022-10-01T16:08:37.688Z,66.93
2022-10-01T16:11:15.662Z,66.99
2022-10-01T16:13:46.866Z,66.97
2022-10-01T16:16:15.320Z,67.26
2022-10-01T16:18:43.736Z,67.53
2022-10-01T16:21:11.917Z,67.76
2022-10-01T16:23:49.543Z,68.07
2022-10-01T16:26:36.497Z,68.15
2022-10-01T16:29:06.527Z,68.40
2022-10-01T16:31:36.221Z,68.49
2022-10-01T16:34:11.822Z,68.73
2022-10-01T16:36:40.070Z,69.04
2022-10-01T16:39:08.671Z,68.92
2022-10-01T16:41:36.926Z,69.16
2022-10-01T16:44:07.976Z,69.55
2022-10-01T16:46:36.879Z,69.81
2022-10-01T16:49:15.541Z,69.97
2022-10-01T16:51:43.551Z,70.03
2022-10-01T16:54:22.882Z,70.41
2022-10-01T16:56:52.361Z,70.38
2022-10-01T16:59:23.424Z,70.51
2022-10-01T17:01:54.915Z,70.57
2022-10-01T17:04:23.837Z,70.75
2022-10-01T17:06:53.048Z,70.67
2022-10-01T17:09:21.133Z,70.91
2022-10-01T17:11:49.980Z,71.07
2022-10-01T17:14:20.061Z,71.24
2022-10-01T17:16:50.816Z,71.46
2022-10-01T17:19:19.360Z,71.27
2022-10-01T17:21:47.343Z,71.63
2022-10-01T17:24:15.393Z,71.88
2022-10-01T17:26:45.530Z,71.94
2022-10-01T17:29:13.888Z,71.90
2022-10-01T17:31:44.972Z,72.19
2022-10-01T17:34:13.368Z,72.18
2022-10-01T17:36:41.358Z,72.24
2022-10-01T17:39:09.306Z,72.13
2022-10-01T17:41:37.317Z,72.22
2022-10-01T17:44:05.246Z,72.42
2022-10-01T17:46:33.491Z,72.70
2022-10-01T17:49:01.733Z,72.65
2022-10-01T17:51:29.990Z,72.67
2022-10-01T17:53:58.387Z,72.85
2022-10-01T17:56:26.454Z,72.93
2022-10-01T17:58:55.157Z,72.99
2022-10-01T18:01:23.179Z,73.19
2022-10-01T18:04:00.403Z,73.15
2022-10-01T18:06:29.774Z,73.34
2022-10-01T18:08:57.936Z,73.63
2022-10-01T18:11:28.506Z,73.89
2022-10-01T18:13:56.675Z,73.95
2022-10-01T18:16:25.772Z,74.05
2022-10-01T18:21:48.145Z,74.31
2022-10-01T18:24:16.672Z,74.29
2022-10-01T18:26:45.893Z,74.23
2022-10-01T18:29:22.881Z,74.69
2022-10-01T18:31:54.494Z,74.68
2022-10-01T18:34:29.318Z,74.80
2022-10-01T18:37:07.303Z,74.68
2022-10-01T18:39:40.245Z,74.50
2022-10-01T18:42:39.320Z,74.90
2022-10-01T18:45:17.911Z,74.92
2022-10-01T18:48:09.487Z,75.13
2022-10-01T18:50:46.978Z,75.07
2022-10-01T18:54:12.144Z,75.14
2022-10-01T18:56:52.180Z,75.32
2022-10-01T18:59:55.470Z,75.38
2022-10-01T19:02:53.520Z,75.95
2022-10-01T19:05:42.769Z,75.92
2022-10-01T19:08:16.799Z,76.30
2022-10-01T19:10:50.256Z,76.15
2022-10-01T19:13:49.200Z,77.00
2022-10-01T19:16:38.863Z,77.01
2022-10-01T19:19:59.100Z,77.33
2022-10-01T19:22:38.083Z,78.71
2022-10-01T19:25:26.213Z,79.01
2022-10-01T19:28:09.254Z,79.18
2022-10-01T19:30:58.396Z,80.38
2022-10-01T19:33:26.561Z,80.52
2022-10-01T19:35:59.153Z,80.78
2022-10-01T19:38:37.112Z,80.42
2022-10-01T19:41:14.995Z,80.79
2022-10-01T19:44:00.115Z,80.38
2022-10-01T19:46:37.443Z,80.72
2022-10-01T19:49:20.941Z,80.68
2022-10-01T19:52:00.171Z,80.89
2022-10-01T19:54:33.679Z,81.07
2022-10-01T19:57:23.865Z,81.21
2022-10-01T19:59:56.504Z,81.12
2022-10-01T20:02:46.022Z,81.50
2022-10-01T20:05:21.107Z,81.40
2022-10-01T20:08:25.361Z,82.04
2022-10-01T20:10:59.576Z,82.01
2022-10-01T20:13:39.534Z,81.91
2022-10-01T20:16:26.357Z,82.22
2022-10-01T20:19:00.163Z,82.16
2022-10-01T20:21:32.927Z,82.11
2022-10-01T20:24:33.218Z,82.37
2022-10-01T20:27:36.547Z,82.51
2022-10-01T20:30:06.743Z,82.60
2022-10-01T20:33:24.191Z,82.84
2022-10-01T20:35:54.872Z,83.76
2022-10-01T20:38:27.912Z,83.38
2022-10-01T20:40:58.642Z,83.13
2022-10-01T20:43:34.452Z,83.06
2022-10-01T20:46:13.621Z,83.37
2022-10-01T20:48:50.015Z,83.80
2022-10-01T20:51:29.540Z,84.03
2022-10-01T20:54:08.256Z,83.57
2022-10-01T20:57:05.706Z,83.54
2022-10-01T20:59:39.161Z,83.71
2022-10-01T21:02:19.208Z,83.71
2022-10-01T21:05:13.136Z,83.54
2022-10-01T21:07:56.973Z,83.77
2022-10-01T21:10:46.249Z,84.12
2022-10-01T21:13:35.017Z,84.59
2022-10-01T21:16:32.930Z,84.52
2022-10-01T21:19:14.243Z,84.51
2022-10-01T21:21:44.786Z,84.76
2022-10-01T21:24:31.077Z,85.37
2022-10-01T21:27:30.174Z,85.26
2022-10-01T21:30:08.178Z,85.23
2022-10-01T21:33:03.651Z,85.24
2022-10-01T21:35:40.769Z,85.78
2022-10-01T21:38:11.569Z,85.66
2022-10-01T21:40:54.625Z,85.64
2022-10-01T21:43:46.318Z,85.82
2022-10-01T21:46:45.497Z,86.01
2022-10-01T21:49:20.073Z,85.91
2022-10-01T21:52:11.182Z,86.02
2022-10-01T21:54:51.134Z,86.21
2022-10-01T21:57:28.090Z,86.44
2022-10-01T22:00:18.867Z,86.46
2022-10-01T22:02:52.834Z,86.68
2022-10-01T22:05:29.615Z,86.66
2022-10-01T22:08:16.765Z,86.78
2022-10-01T22:10:48.580Z,86.66
2022-10-01T22:13:22.376Z,86.76
2022-10-01T22:15:54.414Z,86.96
2022-10-01T22:18:46.176Z,87.29
2022-10-01T22:21:37.186Z,87.67
2022-10-01T22:24:10.187Z,87.66
2022-10-01T22:26:45.300Z,87.53
2022-10-01T22:29:27.654Z,87.67
2022-10-01T22:32:01.397Z,87.87
2022-10-01T22:34:35.750Z,87.93
2022-10-01T22:37:11.711Z,88.16
2022-10-01T22:39:50.528Z,88.11
2022-10-01T22:42:30.474Z,88.24
2022-10-01T22:45:07.090Z,88.46
2022-10-01T22:48:00.385Z,88.57
2022-10-01T22:50:40.233Z,88.92
2022-10-01T22:53:33.460Z,88.94
2022-10-01T22:56:01.388Z,89.64
2022-10-01T22:58:41.231Z,89.63
2022-10-01T23:01:21.033Z,89.85
2022-10-01T23:03:53.318Z,89.54
2022-10-01T23:06:28.346Z,89.57
2022-10-01T23:09:23.968Z,90.20
2022-10-01T23:12:01.050Z,90.15
2022-10-01T23:14:47.450Z,90.15
2022-10-01T23:17:20.843Z,90.29
2022-10-01T23:20:21.938Z,90.89
2022-10-01T23:23:01.437Z,91.01
2022-10-01T23:25:38.059Z,91.41
2022-10-01T23:28:40.786Z,91.34
2022-10-01T23:31:30.160Z,92.13
2022-10-01T23:33:58.149Z,91.90
2022-10-01T23:36:46.883Z,91.58
2022-10-01T23:39:52.321Z,91.75
2022-10-01T23:42:33.191Z,92.00
2022-10-01T23:45:16.518Z,92.33
2022-10-01T23:48:03.643Z,92.66
2022-10-01T23:50:50.356Z,92.60
2022-10-01T23:53:28.451Z,92.27
2022-10-01T23:56:23.575Z,92.45
2022-10-01T23:59:01.251Z,92.22
